Aktuální počasí v Česku a ve světě - METAR

Seznam meteostanic umístěných nejčasteji na letišti v ČR a ve světě

Vyhledat místa podle abecedy:
A B C D E F G H I J K L M N O P Q R S T U V W X Y Z

Filtrovat:

ID stanice:
a/nebo
Název místa (fulltext):
 
Místo (ID)Naposledy načteno 
Odense (EKOD) 02.08.2021 13:50 UTC Zobrazit METAR
EKOD 021350Z 29013KT 260V320 9999 FEW041 SCT050 21/11 Q1008
Odesa (UKOO) 01.02.2018 08:00 UTC Zobrazit METAR
UKOO 010800Z CAVOK 07/04 Q1018 R16/190056 NOSIG
Osijek (LDOS) 02.08.2021 14:00 UTC Zobrazit METAR
LDOS 021400Z 30006KT 260V320 9999 FEW047 26/14 Q1013
Oslo (ENGM) 02.08.2021 13:50 UTC Zobrazit METAR
ENGM 021350Z 04007KT 350V080 CAVOK 15/03 Q1006 NOSIG
Ostend (EBOS) 02.08.2021 13:50 UTC Zobrazit METAR
EBOS 021350Z 34008KT 310V020 9999 FEW026 18/09 Q1016 NOSIG
Ostrava (LKMT) 02.08.2021 14:00 UTC Zobrazit METAR
LKMT 021400Z 24015KT 9999 FEW040 21/15 Q1012 TEMPO 4500 TSRA SCT020CB
Ottawa (CYOW) 02.08.2021 14:00 UTC Zobrazit METAR
CYOW 021400Z 33014G21KT 15SM FEW030 FEW250 18/10 A2999 RMK CU1CI1 CU TR CI TR SLP158 DENSITY ALT 800FT
Ouagadougou (DFFD) 02.08.2021 14:00 UTC Zobrazit METAR
DFFD 021400Z 28007KT 240V340 9999 BKN020 31/23 Q1014 NOSIG
Oulu (EFOU) 02.08.2021 13:50 UTC Zobrazit METAR
EFOU 021350Z AUTO 34006KT 300V020 CAVOK 16/09 Q1002
Reklama

Reklama


Newslettter

Počasí na Váš email

Emaily jsou bez reklamy a bez spamu



Odhlásit newsletter



Kontaktujte nás

Kontaktujte Slunečno.cz

Kontaktujte provozovatele Slunecno.cz

Další české internetové stránky (nejen) o počasí najdete v katalogu TOPlist - weby o počasí nebo vyhledejte na internetu, co jste tu na Počasí Slunečno Slunečnu zatím nenašli:
Přidat mezzi oblíbené stránkyPřidat Slunečno.cz do oblíbených | Nastavit jako HOMEPAGENastavit Slunečno.cz jako HOMEPAGE

Posunout stránku nahoru Posunout stránku nahoru Posunout stránku nahoru
Reklama